作者lastblade008 (James)
看板VideoCard
標題[閒聊]PCB Breakdown:Powercolor RX480 RedDevil
時間Fri Sep 23 12:12:42 2016
國外分析解說顯示卡PCB元件
https://goo.gl/zoQ2Yx
這影片一出引起廣泛討論,
英聽不好,可以看YOUTUBE開字幕來看,
評論:VRM => The Worst
後續..
來自PowerColor的回應?
https://goo.gl/C0KP4R
PCB Breakdown也有解說480 G1及480 Strix,
RX480 Strix有給予好評,用料誠意十足,
480G1 VRM用料比公版還差(注意:這是PCB Breakdown於影片中提到的)
--
※ 發信站: 批踢踢實業坊(ptt.cc), 來自: 1.167.1.65
※ 文章網址: https://webptt.com/m.aspx?n=bbs/VideoCard/M.1474603966.A.E33.html
1F:推 vobor: G心不意外 1060背板可以偷成塑膠材質 網址縮一下喔 09/23 13:33
2F:推 Syg: G心太誇張了@@ 09/23 13:38
3F:推 windrain0317: 我記得是Strix RX480 Great的評價 09/23 13:48
4F:→ windrain0317: G1先讓reviewr失望,直到後來看到紅魔的慘況 09/23 14:05
是的,PCB Breakdown批評紅魔的VRM,不適合超頻使用,不過,類似的PCB紅魔470沒這問題?
6F:→ windrain0317: 怎麼感覺後來回覆有點小酸 09/23 14:33
7F:→ shana0706: 好奇問下 所以470用料最好是那張? 09/23 17:49
8F:推 leo91531: 可是ASUS跑分是最低的,這就讓人懷疑功耗動了什麼手腳 09/23 18:00
你說的是ASUS 470吧~ 這篇說的是480喔...
※ 編輯: lastblade008 (223.139.19.252), 09/23/2016 18:20:39
9F:推 sai25: 酸民不意外 最爛的牌子正確就不酸了 09/23 20:28
10F:推 KotoriCute: 惠惠這麼雷? 09/24 01:27
11F:推 a09117034: 宅男專用卡當然雷 09/24 12:38
12F:→ icekiba: 所以威力彩是最爛的品牌?? 09/24 15:55
13F:推 howard10141: QQ那微星呢...... 09/24 18:05
剛好有一則REDDIT討論各480的推薦
https://goo.gl/64rhdy
不懂國內3人成虎,黑XXX.... 市場大使用者多的國外討論比較有參考價值
14F:推 Bob9154: SAPPHIRE呢 QQ 09/24 19:17
15F:推 vobor: 藍寶應該不錯吧? 超最高耶 09/24 19:31
16F:→ windrain0317: 說爛也不是,就身為一張散熱弄那麼好的RX 480 09/24 19:49
17F:→ windrain0317: 結果其他地方不適合拿來超,作者很失望這樣 09/24 19:49
18F:→ vobor: 這張散熱應該還是輸雙風扇的Gaming X 09/24 20:04
19F:→ Cubelia: 就不適合狂超,尤其是撼訊還釋出解鎖版VBIOS 09/24 20:26
20F:→ Cubelia: 一般使用或小超是沒問題的 09/24 20:27
21F:→ windrain0317: 不過身為威力彩頭牌,這樣真的很落漆就是 09/24 20:34
22F:→ windrain0317: 其實作者算期望落空,他評完ASUS就特別點名期待這張 09/24 20:36
23F:→ kuma660224: 470紅魔=芸芸是6+1相,480紅魔=惠惠也是6+1. 09/25 00:30
24F:→ kuma660224: 但480(公版6+1相)吃得電比470還大。 09/25 00:30
25F:→ kuma660224: 對470(公版4+1)來說,芸芸是給好給滿的超頻卡。 09/25 00:30
26F:→ kuma660224: 對定位超頻卡的惠惠來說,就顯得電供用料普普。 09/25 00:30
27F:→ kuma660224: 大概470晶片數量大,比較不在意480吧。 09/25 00:32
28F:→ kuma660224: 製程良率問題,470變成北極星10的實質主力。 09/25 00:33
29F:→ kuma660224: 不超頻,供電都夠,惠惠等於只是加強散熱的公版供電卡 09/25 00:36
30F:→ kuma660224: 。 09/25 00:36
31F:→ kuma660224: 芸芸才是明顯用料超越其他低價470的卡, 09/25 00:37
32F:→ kuma660224: 因為它還有一張省成本的470紅龍。 09/25 00:37
33F:推 windrain0317: 樓上你有聽完他在講啥嘛?他著眼點不是幾相電源 09/25 03:43
34F:→ windrain0317: 作者明明在靠邀VRM怎麼挑那麼鳥的東西 09/25 03:47
對,他不是要說幾相問題,而是VRM元件問題,
以ASUS 480來說,有提到一相有60A 比 公版40A 好,
480 G1 則是30A 比 公版差,
所以6相一定比較好嗎?以ASUS選用的VRM料件,4相供電能力就大於某卡6相。
至於紅魔470會有疑問,是因為480較高階都被人批評VRM元件,較低階難道會用比較好的嗎?
35F:→ windrain0317: 他的六相就是比公版,甚至G1能扛的還要少很多 09/25 03:59
36F:→ windrain0317: 供電跟他評論無關,是講紅魔VRM不是給高電流用的 09/25 04:20
37F:→ windrain0317: 一樣供電一樣超,紅魔VRM就是比別家有更高燒掉機會 09/25 04:22
38F:→ windrain0317: 另外,作者是用極端超頻者觀點去看,一般使用者倒是 09/25 04:38
39F:→ windrain0317: 不用太在意那麼細節就是 09/25 04:38
40F:推 cpr104: 預設使用下都沒問題啦 卡商也不會希望常出保固 09/25 10:14
※ 編輯: lastblade008 (1.167.1.65), 09/25/2016 11:08:36
41F:→ windrain0317: 另外nitro應該還好,上次qhua弄到core頂到302W 09/25 11:37
42F:→ windrain0317: 依照影片作者說法,紅魔core吃到300W可能就燒vrm了 09/25 11:38
43F:→ vobor: 沒這麼扯… 那只是瞬間最大功耗 09/25 11:44
44F:→ vobor: 又不是長時間維持302w 你以為是390x喔 09/25 11:45
45F:→ kuma660224: PL全開只有50%也吃不到250..... 09/25 12:00
46F:→ kuma660224: 他說狀況是超高電壓,再極限降溫去超頻,還跑fur 09/25 12:01
47F:→ kuma660224: 480的6相沒有比公板多,但每相比較少。 09/25 12:03
48F:→ kuma660224: 470則不是這種情形。數量較多可彌補單顆不足 09/25 12:03
49F:→ kuma660224: 熱量也比較分散。 09/25 12:03
50F:→ windrain0317: 你沒看影片作者解釋嘛,他的bios開下去pl是450W 09/25 12:06
51F:→ windrain0317: 所以就說他是用極端超頻者觀點去看,然後給評價 09/25 12:07
52F:→ kuma660224: 重點是極端。 09/25 12:08
53F:→ windrain0317: 瞬間最大功耗幹上去,vrm就可能直接爆掉了阿 09/25 12:08
54F:→ kuma660224: 而且還要換bios...不然原本有限制。 09/25 12:09
55F:推 vobor: 你要吃到這麼多 核心時脈早就破1400了 09/25 12:09
56F:→ kuma660224: 他提到的電壓還遠超過一般超頻者。 09/25 12:09
57F:→ windrain0317: 日常當然差異不大,但Powercolor相較起來就是省在這 09/25 12:10
58F:→ vobor: 瞬間功耗不會讓vrm掛掉 是長時間高負載才會 09/25 12:10
59F:→ kuma660224: 即使普通超頻也無法到它哪那程度。 09/25 12:10
60F:→ windrain0317: 怎麼不會爆,作者玩法就是要350W core draw 09/25 12:14
61F:→ windrain0317: 在那種情況下,已經超過紅魔vrm specs能承受的 09/25 12:14
62F:→ windrain0317: 日常使用,省電料補散熱也沒啥不好,只是比起來弱了 09/25 12:18
63F:→ windrain0317: 尤其他評了Strix 480,完全就是很明顯對比 09/25 12:26
64F:推 vobor: …你聽不懂 極限超頻才會長時間350w Core draw 一般輕度超 09/25 12:27
65F:→ vobor: 頻哪會 09/25 12:27
66F:→ vobor: 你以為還在用390x喔? 09/25 12:27
67F:→ windrain0317: 你才搞錯吧,我就說日常根本沒差了 09/25 12:28
68F:→ vobor: 對啦 極限超頻我還是推Strix 只是紅魔絕對沒這麼不堪啦 09/25 12:28
69F:→ vobor: 那就好啦 STRIX用料最猛這沒爭議啦 09/25 12:28
70F:→ windrain0317: 當然沒有,省電料換散熱對日常使用者反而更有感阿 09/25 12:29
71F:→ windrain0317: 你電料省但能應付一般使用者,把錢花在散熱器也OK阿 09/25 12:30
72F:→ windrain0317: 一張卡用料不會只是單純電料等級,就這樣而已 09/25 12:36
73F:→ windrain0317: 就像公版480電料等級好,其他就輸了 09/25 12:38
74F:→ kuma660224: 那不是問題,就像一般輪胎不耐極限魔改250km/hr 09/25 12:48
75F:→ kuma660224: 其實一般車迷狂操也不可能跑到那速度。 09/25 12:48
76F:→ windrain0317: 那為什麼有別家能上好料讓買家爽咧? 09/25 13:52
77F:→ windrain0317: 那要這樣說就不用出不同版本了,反正都不會爆 09/25 13:52
78F:→ windrain0317: 愈高階的卡,愈多人重視有的沒的,不管用不用得到 09/25 14:00
79F:→ pipi5867: 我到覺得480也不是什麼高階卡(逃 09/25 14:38
80F:→ vobor: 其實480會出紅魔我挺意外的就是XD 09/25 14:38
81F:→ windrain0317: 說不定哪天藍寶出個毒藥喔 09/25 15:16
82F:→ vobor: 我也在猜 因為他的480 Nitro+其實還有一相的空間 09/25 17:24
83F:→ kuma660224: 出不同版本不全為了供電吧,那只是因素之一 09/25 20:21
84F:→ kuma660224: 散熱氣幾根導管,鰭片多少多長, 09/25 20:22
85F:→ kuma660224: 風扇1顆2顆3顆,直徑轉速差異.... 09/25 20:22
86F:→ kuma660224: 這些對一般人追求高規版其實更重要。 09/25 20:23
87F:→ kuma660224: 畢竟oc通用算式,耗電大致與電壓平方相關。 09/25 20:24
88F:→ kuma660224: 靠瘋狂加壓來超頻其實效率真的很差。 09/25 20:25
89F:→ kuma660224: 高規卡能拉PL維持時脈,能壓低溫避免降頻 09/25 20:35
90F:→ kuma660224: 頂多預設小超,是較正常實用的方向。 09/25 20:35
91F:→ windrain0317: 依照你想法,ROG/OCF這類主機版根本沒意義 09/25 22:27
92F:→ windrain0317: 今天要當作頭牌的卡,期待他撒料頂級很正常 09/25 22:28
93F:→ Litfal: 你看看掛ROG的版子比正常版子貴多少錢... 09/26 13:19
94F:→ kuma660224: 要散熱好避免降頻怎會沒意義。 09/26 16:40
95F:→ windrain0317: 算了,你的立論就是能用不會掛就好,其他不用在意 09/26 16:57
96F:→ windrain0317: 這種對岸最愛玩,顯示卡外觀散熱弄漂亮,裡面各種偷 09/26 16:59
97F:→ windrain0317: 是阿,反正看不到也沒人在意,日常用也不會掛 09/26 17:00
98F:→ windrain0317: 價錢放便宜一點就好,反正有人會買單 09/26 17:01
99F:→ windrain0317: 有興趣你看HIS 4850 ICEQ這系列,就是很好案例 09/26 17:03
100F:→ windrain0317: 日常使用當然都沒問題,就是買的人會可能在意 09/26 17:03
101F:→ windrain0317: ref design相比就是有cost down,但不影響使用 09/26 17:05
102F:→ windrain0317: 直接說啦,它這用料出現在 紅龍/鎧甲貓/ASUS Turbo 09/26 17:16
103F:→ windrain0317: 完全沒有啥好說,為了卡便宜當然要犧牲一點 09/26 17:16
104F:→ windrain0317: 結果放在一張看起來那麼棒的紅魔上?真的就失望而已 09/26 17:19
105F:→ kuma660224: 不是能用就好,而是那幾乎不可能是瓶頸。 09/27 12:50
106F:→ kuma660224: 所以一般評測根本不在乎那部分,更在意風扇散熱 09/27 12:50
107F:→ kuma660224: 北極星早在吃到那高電壓前就撞PL降頻了。 09/27 12:52
108F:→ kuma660224: 反而低電壓比較能維持效能,較不撞PL 09/27 12:52
109F:→ windrain0317: 你高興就好,我只能說威力彩沒做頂卡的天份 09/27 16:35
110F:→ windrain0317: 回去看看人家藍寶怎麼弄他家旗艦卡你就懂了 09/27 16:35
111F:→ windrain0317: 當然你不把紅魔當頂卡,當作costdown卡就當我沒說 09/27 16:42
112F:推 PTTX5: 撼訊那價位... 09/28 17:20